createdAt,value
2018-12-29T00:01:23.517Z,6.73
2018-12-29T00:03:52.741Z,4.80
2018-12-29T00:06:21.999Z,5.47
2018-12-29T00:08:51.232Z,4.50
2018-12-29T00:11:20.803Z,6.13
2018-12-29T00:13:50.048Z,5.67
2018-12-29T00:16:19.313Z,5.83
2018-12-29T00:18:48.680Z,6.47
2018-12-29T00:21:17.961Z,8.73
2018-12-29T00:23:47.184Z,6.07
2018-12-29T00:26:16.520Z,8.03
2018-12-29T00:28:45.784Z,10.27
2018-12-29T00:31:15.044Z,8.80
2018-12-29T00:33:44.312Z,8.27
2018-12-29T00:36:13.568Z,7.43
2018-12-29T00:38:42.801Z,7.80
2018-12-29T00:41:12.434Z,7.97
2018-12-29T00:43:41.696Z,7.10
2018-12-29T00:46:10.916Z,8.00
2018-12-29T00:48:40.154Z,7.13
2018-12-29T00:51:09.448Z,6.87
2018-12-29T00:53:38.691Z,8.00
2018-12-29T00:56:07.967Z,6.07
2018-12-29T00:58:37.232Z,6.20
2018-12-29T01:01:06.463Z,6.67
2018-12-29T01:03:35.731Z,4.37
2018-12-29T01:06:04.956Z,7.53
2018-12-29T01:08:34.180Z,6.90
2018-12-29T01:11:03.460Z,6.80
2018-12-29T01:13:32.692Z,7.67
2018-12-29T01:16:01.991Z,7.10
2018-12-29T01:18:31.264Z,10.03
2018-12-29T01:21:00.599Z,7.27
2018-12-29T01:23:29.840Z,5.70
2018-12-29T01:25:59.147Z,6.53
2018-12-29T01:28:28.374Z,4.90
2018-12-29T01:30:57.611Z,6.43
2018-12-29T01:33:26.879Z,6.40
2018-12-29T01:35:56.133Z,5.77
2018-12-29T01:38:25.396Z,7.07
2018-12-29T01:40:54.655Z,7.07
2018-12-29T01:43:23.933Z,5.97
2018-12-29T01:45:53.159Z,7.30
2018-12-29T01:48:22.435Z,7.20
2018-12-29T01:50:51.671Z,7.10
2018-12-29T01:53:20.927Z,8.57
2018-12-29T01:55:50.164Z,6.73
2018-12-29T01:58:19.480Z,6.53
2018-12-29T02:00:48.708Z,9.60
2018-12-29T02:03:17.975Z,5.57
2018-12-29T02:05:47.431Z,9.13
2018-12-29T02:08:16.707Z,7.07
2018-12-29T02:10:46.080Z,4.50
2018-12-29T02:13:15.516Z,8.27
2018-12-29T02:15:44.783Z,5.47
2018-12-29T02:18:14.047Z,4.30
2018-12-29T02:20:43.347Z,5.37
2018-12-29T02:23:12.667Z,7.67
2018-12-29T02:25:41.927Z,3.77
2018-12-29T02:28:11.220Z,10.77
2018-12-29T02:30:40.494Z,3.40
2018-12-29T02:33:09.774Z,5.07
2018-12-29T02:35:38.988Z,4.67
2018-12-29T02:38:08.249Z,3.60
2018-12-29T02:40:37.507Z,4.03
2018-12-29T02:43:07.338Z,3.20
2018-12-29T02:45:36.606Z,3.47
2018-12-29T02:48:05.830Z,3.77
2018-12-29T02:50:35.098Z,3.60
2018-12-29T02:53:04.420Z,3.13
2018-12-29T02:55:33.658Z,2.60
2018-12-29T02:58:02.934Z,6.57
2018-12-29T03:00:32.159Z,2.43
2018-12-29T03:03:01.430Z,6.30
2018-12-29T03:05:30.634Z,2.80
2018-12-29T03:07:59.978Z,3.23
2018-12-29T03:10:29.205Z,2.67
2018-12-29T03:12:58.546Z,5.63
2018-12-29T03:15:27.810Z,2.60
2018-12-29T03:17:57.206Z,5.43
2018-12-29T03:20:26.478Z,3.37
2018-12-29T03:22:55.735Z,5.30
2018-12-29T03:25:24.971Z,6.20
2018-12-29T03:27:54.334Z,3.53
2018-12-29T03:30:23.567Z,3.77
2018-12-29T03:32:52.832Z,3.00
2018-12-29T03:35:22.090Z,3.97
2018-12-29T03:37:51.350Z,4.27
2018-12-29T03:40:20.610Z,6.37
2018-12-29T03:42:49.871Z,2.27
2018-12-29T03:45:19.139Z,6.63
2018-12-29T03:47:48.482Z,6.50
2018-12-29T03:50:17.709Z,8.27
2018-12-29T03:52:46.914Z,6.27
2018-12-29T03:55:16.274Z,5.60
2018-12-29T03:57:45.515Z,6.90
2018-12-29T04:00:14.820Z,6.17
2018-12-29T04:02:44.061Z,2.23
2018-12-29T04:05:13.355Z,2.87
2018-12-29T04:07:42.673Z,5.27
2018-12-29T04:10:15.397Z,2.87
2018-12-29T04:12:48.065Z,3.27
2018-12-29T04:15:17.461Z,2.57
2018-12-29T04:17:46.761Z,2.93
2018-12-29T04:20:16.057Z,8.17
2018-12-29T04:22:45.326Z,2.30
2018-12-29T04:25:14.589Z,3.60
2018-12-29T04:27:43.829Z,2.93
2018-12-29T04:30:13.869Z,3.37
2018-12-29T04:32:43.101Z,3.53
2018-12-29T04:35:12.378Z,3.70
2018-12-29T04:37:41.675Z,2.83
2018-12-29T04:40:11.341Z,4.47
2018-12-29T04:42:40.585Z,3.10
2018-12-29T04:45:09.821Z,5.60
2018-12-29T04:47:39.097Z,4.63
2018-12-29T04:50:08.768Z,3.37
2018-12-29T04:52:38.001Z,2.60
2018-12-29T04:55:07.257Z,3.43
2018-12-29T04:57:36.500Z,2.70
2018-12-29T05:00:06.593Z,4.23
2018-12-29T05:02:35.821Z,3.13
2018-12-29T05:05:05.424Z,5.43
2018-12-29T05:07:34.699Z,2.23
2018-12-29T05:10:04.033Z,3.53
2018-12-29T05:12:33.302Z,3.47
2018-12-29T05:15:02.540Z,5.10
2018-12-29T05:17:31.804Z,8.93
2018-12-29T05:20:01.060Z,8.53
2018-12-29T05:22:30.360Z,8.00
2018-12-29T05:24:59.624Z,7.00
2018-12-29T05:27:28.904Z,6.80
2018-12-29T05:29:58.128Z,6.93
2018-12-29T05:32:27.400Z,5.20
2018-12-29T05:34:57.489Z,6.50
2018-12-29T05:37:26.716Z,9.53
2018-12-29T05:39:55.988Z,8.37
2018-12-29T05:42:25.236Z,8.77
2018-12-29T05:44:54.488Z,11.17
2018-12-29T05:47:23.748Z,6.40
2018-12-29T05:49:53.244Z,6.73
2018-12-29T05:52:22.461Z,9.90
2018-12-29T05:54:51.722Z,7.63
2018-12-29T05:57:20.955Z,4.67
2018-12-29T05:59:50.224Z,6.57
2018-12-29T06:02:19.496Z,6.93
2018-12-29T06:04:48.744Z,6.93
2018-12-29T06:07:18.004Z,5.27
2018-12-29T06:09:47.316Z,8.73
2018-12-29T06:12:16.588Z,9.73
2018-12-29T06:14:45.905Z,9.00
2018-12-29T06:17:15.164Z,8.70
2018-12-29T06:19:44.427Z,7.73
2018-12-29T06:22:13.732Z,9.20
2018-12-29T06:24:43.132Z,11.20
2018-12-29T06:27:12.384Z,6.37
2018-12-29T06:29:42.053Z,11.10
2018-12-29T06:32:11.267Z,9.13
2018-12-29T06:34:40.514Z,7.60
2018-12-29T06:37:09.775Z,10.87
2018-12-29T06:39:39.011Z,14.17
2018-12-29T06:42:08.271Z,8.93
2018-12-29T06:44:37.548Z,8.37
2018-12-29T06:47:06.905Z,9.60
2018-12-29T06:49:36.143Z,8.40
2018-12-29T06:52:05.394Z,7.90
2018-12-29T06:54:34.655Z,12.27
2018-12-29T06:57:03.919Z,16.50
2018-12-29T06:59:33.187Z,27.80
2018-12-29T07:02:02.686Z,35.63
2018-12-29T07:04:31.943Z,37.97
2018-12-29T07:07:01.187Z,40.70
2018-12-29T07:09:30.459Z,22.00
2018-12-29T07:11:59.727Z,20.53
2018-12-29T07:14:28.955Z,17.43
2018-12-29T07:16:58.219Z,21.23
2018-12-29T07:19:27.487Z,14.23
2018-12-29T07:21:56.775Z,13.80
2018-12-29T07:24:26.055Z,17.23
2018-12-29T07:26:55.323Z,14.70
2018-12-29T07:29:24.555Z,15.63
2018-12-29T07:31:53.822Z,15.03
2018-12-29T07:34:23.058Z,16.90
2018-12-29T07:36:52.322Z,15.10
2018-12-29T07:39:21.818Z,18.73
2018-12-29T07:41:51.103Z,18.53
2018-12-29T07:44:20.422Z,21.20
2018-12-29T07:46:49.869Z,29.13
2018-12-29T07:49:19.162Z,21.00
2018-12-29T07:51:48.434Z,20.17
2018-12-29T07:54:18.008Z,23.87
2018-12-29T07:56:47.246Z,19.77
2018-12-29T07:59:16.507Z,19.63
2018-12-29T08:01:45.818Z,31.10
2018-12-29T08:04:15.102Z,25.70
2018-12-29T08:06:44.425Z,24.03
2018-12-29T08:09:13.657Z,30.07
2018-12-29T08:11:43.036Z,22.27
2018-12-29T08:14:12.285Z,50.80
2018-12-29T08:16:41.569Z,48.03
2018-12-29T08:19:10.832Z,45.27
2018-12-29T08:21:40.140Z,32.80
2018-12-29T08:24:09.396Z,34.40
2018-12-29T08:26:38.628Z,37.23
2018-12-29T08:29:07.913Z,37.97
2018-12-29T08:31:37.158Z,38.73
2018-12-29T08:34:07.020Z,39.07
2018-12-29T08:36:36.372Z,32.60
2018-12-29T08:39:06.721Z,22.97
2018-12-29T08:41:35.992Z,23.13
2018-12-29T08:44:05.301Z,30.07
2018-12-29T08:46:34.536Z,26.27
2018-12-29T08:49:03.803Z,21.43
2018-12-29T08:51:33.043Z,23.13
2018-12-29T08:54:02.323Z,22.40
2018-12-29T08:56:31.709Z,29.90
2018-12-29T08:59:00.959Z,31.70
2018-12-29T09:01:30.277Z,36.17
2018-12-29T09:03:59.531Z,51.27
2018-12-29T09:06:28.758Z,37.77
2018-12-29T09:08:58.087Z,41.43
2018-12-29T09:11:27.391Z,41.57
2018-12-29T09:13:56.647Z,42.17
2018-12-29T09:16:25.911Z,34.60
2018-12-29T09:18:55.143Z,49.07
2018-12-29T09:21:24.647Z,30.47
2018-12-29T09:23:53.905Z,39.47
2018-12-29T09:26:23.151Z,26.50
2018-12-29T09:28:52.425Z,29.00
2018-12-29T09:31:21.735Z,22.67
2018-12-29T09:33:51.871Z,24.47
2018-12-29T09:36:21.393Z,36.97
2018-12-29T09:38:50.723Z,29.67
2018-12-29T09:41:20.071Z,35.10
2018-12-29T09:43:49.319Z,25.53
2018-12-29T09:46:18.502Z,32.93
2018-12-29T09:48:47.747Z,41.47
2018-12-29T09:51:17.743Z,46.57
2018-12-29T09:53:46.963Z,70.07
2018-12-29T09:56:16.194Z,62.70
2018-12-29T09:58:45.466Z,78.33
2018-12-29T10:01:14.698Z,70.23
2018-12-29T10:03:43.962Z,59.90
2018-12-29T10:06:13.235Z,61.60
2018-12-29T10:08:42.554Z,51.03
2018-12-29T10:11:11.787Z,52.07
2018-12-29T10:13:41.109Z,53.50
2018-12-29T10:16:10.370Z,52.27
2018-12-29T10:18:39.654Z,50.63
2018-12-29T10:21:08.918Z,46.33
2018-12-29T10:23:38.129Z,69.33
2018-12-29T10:26:07.376Z,49.97
2018-12-29T10:28:36.707Z,51.70
2018-12-29T10:31:07.335Z,44.17
2018-12-29T10:33:36.562Z,56.73
2018-12-29T10:36:05.870Z,25.97
2018-12-29T10:38:35.144Z,43.70
2018-12-29T10:41:04.413Z,26.17
2018-12-29T10:43:33.707Z,48.40
2018-12-29T10:46:02.962Z,46.23
2018-12-29T10:48:32.266Z,97.47
2018-12-29T10:51:01.510Z,90.50
2018-12-29T10:53:30.770Z,69.40
2018-12-29T10:56:00.117Z,76.93
2018-12-29T10:58:29.342Z,49.93
2018-12-29T11:00:58.831Z,166.57
2018-12-29T11:03:28.086Z,104.60
2018-12-29T11:05:57.389Z,92.93
2018-12-29T11:08:26.674Z,70.97
2018-12-29T11:10:55.990Z,29.30
2018-12-29T11:13:25.262Z,39.17
2018-12-29T11:15:54.534Z,99.10
2018-12-29T11:18:23.961Z,23.37
2018-12-29T11:20:53.235Z,24.83
2018-12-29T11:23:22.557Z,26.53
2018-12-29T11:25:51.785Z,55.23
2018-12-29T11:28:21.046Z,49.83
2018-12-29T11:30:50.335Z,43.07
2018-12-29T11:33:19.581Z,29.60
2018-12-29T11:35:48.830Z,31.77
2018-12-29T11:38:18.120Z,48.23
2018-12-29T11:40:47.333Z,35.03
2018-12-29T11:43:16.686Z,33.43
2018-12-29T11:45:45.830Z,41.37
2018-12-29T11:48:15.097Z,57.50
2018-12-29T11:50:44.437Z,21.37
2018-12-29T11:53:13.692Z,19.37
2018-12-29T11:55:42.920Z,24.70
2018-12-29T11:58:12.195Z,42.17
2018-12-29T12:00:41.420Z,25.73
2018-12-29T12:03:10.684Z,17.50
2018-12-29T12:05:39.922Z,18.27
2018-12-29T12:08:09.507Z,16.10
2018-12-29T12:10:38.768Z,22.80
2018-12-29T12:13:08.061Z,15.97
2018-12-29T12:15:37.363Z,17.17
2018-12-29T12:18:06.593Z,23.70
2018-12-29T12:20:35.848Z,28.87
2018-12-29T12:23:05.108Z,22.20
2018-12-29T12:25:34.404Z,21.83
2018-12-29T12:28:04.045Z,23.87
2018-12-29T12:30:33.317Z,34.13
2018-12-29T12:33:02.552Z,22.53
2018-12-29T12:35:31.904Z,13.50
2018-12-29T12:38:01.268Z,26.27
2018-12-29T12:40:30.521Z,31.00
2018-12-29T12:42:59.742Z,36.00
2018-12-29T12:45:29.012Z,35.13
2018-12-29T12:48:04.988Z,15.43
2018-12-29T12:50:29.159Z,19.67
2018-12-29T12:52:58.465Z,14.00
2018-12-29T12:55:27.840Z,14.30
2018-12-29T12:57:57.280Z,23.87
2018-12-29T13:00:26.852Z,35.47
2018-12-29T13:02:56.220Z,26.00
2018-12-29T13:05:25.461Z,20.37
2018-12-29T13:07:54.922Z,17.57
2018-12-29T13:10:24.192Z,25.40
2018-12-29T13:12:53.420Z,19.03
2018-12-29T13:15:22.744Z,39.90
2018-12-29T13:17:52.002Z,27.87
2018-12-29T13:20:21.447Z,56.07
2018-12-29T13:22:50.698Z,25.70
2018-12-29T13:25:19.950Z,25.67
2018-12-29T13:27:49.211Z,23.43
2018-12-29T13:30:18.474Z,20.93
2018-12-29T13:32:47.714Z,28.83
2018-12-29T13:35:16.979Z,23.50
2018-12-29T13:37:46.242Z,16.23
2018-12-29T13:40:15.502Z,30.37
2018-12-29T13:42:44.867Z,28.43
2018-12-29T13:45:14.338Z,26.40
2018-12-29T13:47:43.698Z,29.57
2018-12-29T13:50:13.003Z,30.70
2018-12-29T13:52:42.236Z,25.00
2018-12-29T13:55:11.582Z,25.50
2018-12-29T13:57:40.798Z,29.93
2018-12-29T14:00:10.075Z,27.37
2018-12-29T14:02:39.297Z,29.33
2018-12-29T14:05:08.560Z,26.57
2018-12-29T14:07:37.887Z,27.47
2018-12-29T14:10:07.250Z,29.03
2018-12-29T14:12:36.509Z,27.63
2018-12-29T14:15:05.890Z,29.50
2018-12-29T14:17:35.253Z,24.87
2018-12-29T14:20:05.473Z,30.70
2018-12-29T14:22:35.064Z,25.67
2018-12-29T14:25:04.344Z,24.87
2018-12-29T14:27:33.616Z,27.10
2018-12-29T14:30:02.881Z,24.10
2018-12-29T14:32:32.129Z,32.53
2018-12-29T14:35:02.341Z,30.33
2018-12-29T14:37:31.618Z,28.23
2018-12-29T14:40:01.306Z,34.00
2018-12-29T14:42:30.945Z,29.70
2018-12-29T14:45:00.262Z,33.17
2018-12-29T14:47:29.585Z,32.90
2018-12-29T14:49:59.245Z,25.47
2018-12-29T14:52:28.555Z,30.30
2018-12-29T14:54:57.845Z,30.57
2018-12-29T14:57:27.209Z,32.43
2018-12-29T14:59:56.445Z,35.20
2018-12-29T15:02:25.685Z,35.10
2018-12-29T15:04:55.037Z,36.93
2018-12-29T15:07:24.277Z,37.30
2018-12-29T15:09:53.546Z,43.80
2018-12-29T15:12:22.874Z,32.03
2018-12-29T15:14:52.584Z,45.57
2018-12-29T15:17:21.933Z,34.87
2018-12-29T15:19:51.217Z,31.23
2018-12-29T15:22:20.465Z,35.23
2018-12-29T15:24:50.089Z,30.27
2018-12-29T15:27:19.465Z,38.00
2018-12-29T15:29:48.737Z,43.00
2018-12-29T15:32:18.242Z,40.43
2018-12-29T15:34:47.505Z,40.47
2018-12-29T15:37:16.748Z,36.03
2018-12-29T15:39:46.117Z,38.70
2018-12-29T15:42:15.631Z,41.80
2018-12-29T15:44:44.896Z,31.43
2018-12-29T15:47:14.128Z,36.53
2018-12-29T15:49:43.400Z,39.17
2018-12-29T15:52:12.652Z,54.17
2018-12-29T15:54:42.424Z,39.93
2018-12-29T15:57:11.668Z,38.10
2018-12-29T15:59:43.027Z,41.87
2018-12-29T16:02:12.271Z,40.60
2018-12-29T16:04:41.521Z,39.00
2018-12-29T16:07:10.792Z,39.80
2018-12-29T16:09:40.233Z,40.17
2018-12-29T16:12:09.488Z,37.07
2018-12-29T16:14:38.801Z,33.97
2018-12-29T16:17:08.350Z,36.20
2018-12-29T16:19:40.862Z,28.60
2018-12-29T16:22:10.125Z,30.60
2018-12-29T16:24:39.375Z,24.53
2018-12-29T16:27:08.747Z,24.17
2018-12-29T16:29:37.967Z,23.90
2018-12-29T16:32:07.247Z,26.97
2018-12-29T16:34:36.475Z,22.40
2018-12-29T16:37:05.743Z,24.23
2018-12-29T16:39:35.287Z,19.63
2018-12-29T16:42:04.555Z,25.20
2018-12-29T16:44:33.791Z,20.10
2018-12-29T16:47:03.131Z,24.40
2018-12-29T16:49:32.711Z,19.40
2018-12-29T16:52:01.967Z,21.83
2018-12-29T16:54:31.194Z,14.77
2018-12-29T16:57:00.458Z,17.07
2018-12-29T16:59:30.022Z,18.70
2018-12-29T17:01:59.306Z,19.80
2018-12-29T17:04:28.530Z,20.07
2018-12-29T17:06:57.760Z,21.23
2018-12-29T17:09:27.331Z,18.70
2018-12-29T17:11:56.568Z,17.30
2018-12-29T17:14:25.883Z,14.87
2018-12-29T17:16:55.230Z,18.30
2018-12-29T17:19:24.479Z,16.33
2018-12-29T17:21:53.822Z,18.30
2018-12-29T17:24:23.078Z,15.93
2018-12-29T17:26:52.418Z,25.50
2018-12-29T17:29:21.921Z,20.43
2018-12-29T17:31:51.182Z,21.57
2018-12-29T17:34:20.526Z,18.00
2018-12-29T17:36:49.974Z,16.70
2018-12-29T17:39:19.315Z,16.53
2018-12-29T17:41:48.698Z,16.13
2018-12-29T17:44:18.058Z,21.43
2018-12-29T17:46:47.398Z,17.40
2018-12-29T17:49:22.782Z,16.07
2018-12-29T17:51:47.602Z,16.40
2018-12-29T17:54:16.829Z,16.33
2018-12-29T17:56:46.081Z,15.80
2018-12-29T17:59:15.621Z,17.40
2018-12-29T18:01:45.103Z,22.77
2018-12-29T18:04:14.426Z,21.10
2018-12-29T18:06:43.758Z,25.67
2018-12-29T18:09:13.006Z,21.47
2018-12-29T18:11:42.456Z,31.20
2018-12-29T18:14:11.758Z,23.27
2018-12-29T18:16:41.014Z,16.80
2018-12-29T18:19:10.538Z,19.63
2018-12-29T18:21:39.881Z,26.67
2018-12-29T18:24:09.117Z,17.90
2018-12-29T18:26:38.379Z,21.10
2018-12-29T18:29:08.057Z,21.47
2018-12-29T18:31:37.373Z,22.57
2018-12-29T18:34:06.597Z,18.20
2018-12-29T18:36:35.829Z,28.93
2018-12-29T18:39:07.197Z,17.53
2018-12-29T18:41:36.432Z,27.40
2018-12-29T18:44:05.993Z,23.80
2018-12-29T18:46:35.228Z,22.90
2018-12-29T18:49:04.500Z,23.10
2018-12-29T18:51:34.036Z,32.40
2018-12-29T18:54:03.272Z,23.40
2018-12-29T18:56:32.841Z,26.40
2018-12-29T18:59:02.063Z,26.93
2018-12-29T19:01:31.351Z,25.83
2018-12-29T19:04:00.651Z,22.00
2018-12-29T19:06:29.991Z,24.90
2018-12-29T19:08:59.304Z,25.87
2018-12-29T19:11:28.874Z,28.87
2018-12-29T19:13:58.104Z,29.03
2018-12-29T19:16:27.429Z,28.70
2018-12-29T19:18:56.783Z,29.47
2018-12-29T19:21:26.144Z,34.80
2018-12-29T19:23:55.855Z,31.37
2018-12-29T19:26:25.413Z,35.77
2018-12-29T19:28:54.973Z,35.57
2018-12-29T19:31:24.275Z,33.43
2018-12-29T19:33:53.502Z,36.03
2018-12-29T19:36:22.737Z,39.30
2018-12-29T19:38:52.002Z,37.50
2018-12-29T19:41:21.226Z,28.63
2018-12-29T19:43:50.750Z,33.00
2018-12-29T19:46:20.209Z,35.70
2018-12-29T19:48:49.529Z,35.50
2018-12-29T19:51:18.782Z,34.70
2018-12-29T19:53:48.410Z,32.27
2018-12-29T19:56:17.666Z,35.63
2018-12-29T19:58:46.926Z,28.43
2018-12-29T20:01:16.186Z,44.10
2018-12-29T20:03:45.442Z,39.30
2018-12-29T20:06:14.765Z,36.50
2018-12-29T20:08:44.029Z,42.43
2018-12-29T20:11:13.278Z,31.57
2018-12-29T20:13:42.601Z,31.67
2018-12-29T20:16:11.841Z,38.43
2018-12-29T20:18:41.101Z,36.53
2018-12-29T20:21:10.345Z,33.80
2018-12-29T20:23:39.605Z,40.60
2018-12-29T20:26:08.901Z,37.60
2018-12-29T20:28:38.198Z,52.63
2018-12-29T20:31:07.773Z,40.47
2018-12-29T20:33:36.998Z,36.63
2018-12-29T20:36:06.269Z,35.83
2018-12-29T20:38:35.609Z,37.83
2018-12-29T20:41:04.997Z,39.03
2018-12-29T20:43:34.545Z,35.40
2018-12-29T20:46:03.910Z,43.77
2018-12-29T20:48:33.141Z,39.73
2018-12-29T20:51:02.419Z,42.27
2018-12-29T20:53:31.661Z,35.37
2018-12-29T20:56:00.945Z,31.33
2018-12-29T20:58:30.253Z,37.50
2018-12-29T21:00:59.521Z,39.63
2018-12-29T21:03:28.753Z,47.47
2018-12-29T21:05:58.017Z,35.20
2018-12-29T21:08:27.325Z,37.37
2018-12-29T21:10:56.562Z,44.13
2018-12-29T21:13:25.804Z,40.23
2018-12-29T21:15:55.133Z,35.57
2018-12-29T21:18:24.442Z,43.03
2018-12-29T21:20:53.689Z,40.93
2018-12-29T21:23:23.366Z,43.97
2018-12-29T21:25:52.670Z,42.77
2018-12-29T21:28:21.950Z,39.40
2018-12-29T21:30:51.269Z,40.17
2018-12-29T21:33:20.558Z,42.23
2018-12-29T21:35:50.170Z,42.73
2018-12-29T21:38:19.481Z,48.73
2018-12-29T21:40:48.697Z,42.73
2018-12-29T21:43:17.989Z,46.53
2018-12-29T21:45:47.253Z,45.10
2018-12-29T21:48:16.596Z,41.20
2018-12-29T21:50:45.869Z,38.20
2018-12-29T21:53:15.101Z,49.03
2018-12-29T21:55:44.377Z,42.67
2018-12-29T21:58:13.688Z,149.07
2018-12-29T22:00:42.963Z,47.73
2018-12-29T22:03:12.545Z,44.53
2018-12-29T22:05:41.785Z,38.10
2018-12-29T22:08:11.028Z,38.30
2018-12-29T22:10:40.289Z,42.67
2018-12-29T22:13:09.570Z,40.43
2018-12-29T22:15:39.013Z,42.70
2018-12-29T22:18:08.282Z,45.90
2018-12-29T22:20:37.517Z,42.97
2018-12-29T22:23:06.865Z,47.70
2018-12-29T22:25:36.091Z,54.83
2018-12-29T22:28:05.442Z,42.27
2018-12-29T22:30:34.749Z,46.47
2018-12-29T22:33:03.972Z,43.37
2018-12-29T22:35:33.242Z,46.60
2018-12-29T22:38:02.448Z,45.07
2018-12-29T22:40:31.777Z,44.07
2018-12-29T22:43:01.112Z,58.40
2018-12-29T22:45:30.420Z,46.10
2018-12-29T22:47:59.656Z,43.97
2018-12-29T22:50:29.015Z,38.97
2018-12-29T22:52:58.400Z,48.67
2018-12-29T22:55:27.752Z,47.77
2018-12-29T22:57:56.992Z,47.90
2018-12-29T23:00:43.396Z,41.23
2018-12-29T23:03:13.127Z,48.90
2018-12-29T23:05:42.391Z,45.67
2018-12-29T23:08:11.751Z,48.80
2018-12-29T23:10:41.015Z,44.93
2018-12-29T23:13:10.247Z,42.83
2018-12-29T23:15:39.563Z,45.50
2018-12-29T23:18:08.787Z,43.87
2018-12-29T23:20:38.464Z,43.23
2018-12-29T23:23:07.727Z,39.93
2018-12-29T23:25:36.966Z,45.70
2018-12-29T23:28:06.227Z,43.83
2018-12-29T23:30:37.323Z,42.30
2018-12-29T23:33:06.647Z,47.77
2018-12-29T23:35:35.872Z,46.23
2018-12-29T23:38:05.418Z,43.20
2018-12-29T23:40:35.019Z,53.93
2018-12-29T23:43:04.255Z,46.07
2018-12-29T23:45:33.823Z,56.57
2018-12-29T23:48:03.167Z,49.10
2018-12-29T23:50:32.431Z,43.37
2018-12-29T23:53:02.287Z,55.43
2018-12-29T23:55:31.851Z,48.13
2018-12-29T23:58:01.223Z,54.43
